sensor_id;sensor_type;location;lat;lon;timestamp;P1;durP1;ratioP1;P2;durP2;ratioP2
26034;SDS011;13809;48.632;11.576;2023-02-01T00:00:55;3.77;;;3.20;;
26034;SDS011;13809;48.632;11.576;2023-02-01T00:06:00;4.93;;;3.30;;
26034;SDS011;13809;48.632;11.576;2023-02-01T00:11:05;5.10;;;3.20;;
26034;SDS011;13809;48.632;11.576;2023-02-01T00:16:10;4.47;;;3.40;;
26034;SDS011;13809;48.632;11.576;2023-02-01T00:21:17;3.37;;;3.03;;
26034;SDS011;13809;48.632;11.576;2023-02-01T00:26:22;3.80;;;3.20;;
26034;SDS011;13809;48.632;11.576;2023-02-01T00:31:30;4.73;;;3.23;;
26034;SDS011;13809;48.632;11.576;2023-02-01T00:36:35;3.70;;;3.07;;
26034;SDS011;13809;48.632;11.576;2023-02-01T00:41:38;4.20;;;3.10;;
26034;SDS011;13809;48.632;11.576;2023-02-01T00:46:42;3.70;;;3.30;;
26034;SDS011;13809;48.632;11.576;2023-02-01T00:51:46;4.83;;;3.27;;
26034;SDS011;13809;48.632;11.576;2023-02-01T00:56:49;3.00;;;2.70;;
26034;SDS011;13809;48.632;11.576;2023-02-01T01:01:53;2.97;;;2.77;;
26034;SDS011;13809;48.632;11.576;2023-02-01T01:06:57;3.17;;;2.87;;
26034;SDS011;13809;48.632;11.576;2023-02-01T01:12:00;3.20;;;2.83;;
26034;SDS011;13809;48.632;11.576;2023-02-01T01:17:04;4.47;;;3.30;;
26034;SDS011;13809;48.632;11.576;2023-02-01T01:22:08;4.20;;;3.13;;
26034;SDS011;13809;48.632;11.576;2023-02-01T01:27:11;3.80;;;3.33;;
26034;SDS011;13809;48.632;11.576;2023-02-01T01:32:15;3.43;;;3.03;;
26034;SDS011;13809;48.632;11.576;2023-02-01T01:37:19;2.97;;;2.70;;
26034;SDS011;13809;48.632;11.576;2023-02-01T01:42:22;3.53;;;3.23;;
26034;SDS011;13809;48.632;11.576;2023-02-01T01:47:26;5.00;;;3.40;;
26034;SDS011;13809;48.632;11.576;2023-02-01T01:52:34;3.80;;;3.43;;
26034;SDS011;13809;48.632;11.576;2023-02-01T01:57:40;3.60;;;3.30;;
26034;SDS011;13809;48.632;11.576;2023-02-01T02:02:46;3.60;;;3.30;;
26034;SDS011;13809;48.632;11.576;2023-02-01T02:07:57;3.73;;;3.40;;
26034;SDS011;13809;48.632;11.576;2023-02-01T02:13:02;4.30;;;3.43;;
26034;SDS011;13809;48.632;11.576;2023-02-01T02:18:06;4.20;;;3.80;;
26034;SDS011;13809;48.632;11.576;2023-02-01T02:29:11;3.97;;;3.57;;
26034;SDS011;13809;48.632;11.576;2023-02-01T02:34:47;3.80;;;3.50;;
26034;SDS011;13809;48.632;11.576;2023-02-01T02:39:58;3.77;;;3.47;;
26034;SDS011;13809;48.632;11.576;2023-02-01T02:45:12;4.50;;;3.83;;
26034;SDS011;13809;48.632;11.576;2023-02-01T02:50:40;4.50;;;4.00;;
26034;SDS011;13809;48.632;11.576;2023-02-01T02:56:04;4.10;;;3.67;;
26034;SDS011;13809;48.632;11.576;2023-02-01T03:01:27;4.17;;;3.77;;
26034;SDS011;13809;48.632;11.576;2023-02-01T03:06:50;4.00;;;3.60;;
26034;SDS011;13809;48.632;11.576;2023-02-01T03:12:08;4.23;;;3.83;;
26034;SDS011;13809;48.632;11.576;2023-02-01T03:17:33;3.50;;;3.20;;
26034;SDS011;13809;48.632;11.576;2023-02-01T05:24:15;3.90;;;3.43;;
26034;SDS011;13809;48.632;11.576;2023-02-01T05:29:21;3.50;;;3.20;;
26034;SDS011;13809;48.632;11.576;2023-02-01T05:34:25;3.70;;;3.40;;
26034;SDS011;13809;48.632;11.576;2023-02-01T05:39:29;3.30;;;3.00;;
26034;SDS011;13809;48.632;11.576;2023-02-01T05:44:32;3.70;;;3.10;;
26034;SDS011;13809;48.632;11.576;2023-02-01T05:49:36;2.90;;;2.70;;
26034;SDS011;13809;48.632;11.576;2023-02-01T05:54:39;3.07;;;2.77;;
26034;SDS011;13809;48.632;11.576;2023-02-01T05:59:43;2.83;;;2.63;;
26034;SDS011;13809;48.632;11.576;2023-02-01T06:04:48;2.83;;;2.57;;
26034;SDS011;13809;48.632;11.576;2023-02-01T06:09:51;2.70;;;2.50;;
26034;SDS011;13809;48.632;11.576;2023-02-01T06:14:54;2.73;;;2.53;;
26034;SDS011;13809;48.632;11.576;2023-02-01T06:19:58;2.53;;;2.40;;
26034;SDS011;13809;48.632;11.576;2023-02-01T06:25:02;3.13;;;2.63;;
26034;SDS011;13809;48.632;11.576;2023-02-01T06:30:05;2.97;;;2.67;;
26034;SDS011;13809;48.632;11.576;2023-02-01T06:35:11;2.90;;;2.70;;
26034;SDS011;13809;48.632;11.576;2023-02-01T06:40:17;2.40;;;2.20;;
26034;SDS011;13809;48.632;11.576;2023-02-01T06:45:20;3.40;;;2.83;;
26034;SDS011;13809;48.632;11.576;2023-02-01T06:50:25;3.07;;;2.83;;
26034;SDS011;13809;48.632;11.576;2023-02-01T06:55:29;2.90;;;2.67;;
26034;SDS011;13809;48.632;11.576;2023-02-01T07:00:32;3.10;;;2.90;;
26034;SDS011;13809;48.632;11.576;2023-02-01T07:05:36;2.97;;;2.67;;
26034;SDS011;13809;48.632;11.576;2023-02-01T07:10:39;3.23;;;2.43;;
26034;SDS011;13809;48.632;11.576;2023-02-01T07:15:43;2.80;;;2.47;;
26034;SDS011;13809;48.632;11.576;2023-02-01T07:20:50;2.47;;;2.27;;
26034;SDS011;13809;48.632;11.576;2023-02-01T07:25:54;3.00;;;2.50;;
26034;SDS011;13809;48.632;11.576;2023-02-01T07:31:01;3.20;;;2.90;;
26034;SDS011;13809;48.632;11.576;2023-02-01T07:36:08;3.47;;;3.17;;
26034;SDS011;13809;48.632;11.576;2023-02-01T07:41:14;3.43;;;2.53;;
26034;SDS011;13809;48.632;11.576;2023-02-01T07:46:17;2.73;;;2.50;;
26034;SDS011;13809;48.632;11.576;2023-02-01T07:51:22;3.00;;;2.70;;
26034;SDS011;13809;48.632;11.576;2023-02-01T07:56:25;2.87;;;2.67;;
26034;SDS011;13809;48.632;11.576;2023-02-01T08:01:28;2.63;;;2.43;;
26034;SDS011;13809;48.632;11.576;2023-02-01T08:06:33;3.00;;;2.73;;
26034;SDS011;13809;48.632;11.576;2023-02-01T08:11:37;2.90;;;2.70;;
26034;SDS011;13809;48.632;11.576;2023-02-01T08:16:40;3.00;;;2.63;;
26034;SDS011;13809;48.632;11.576;2023-02-01T08:21:44;2.90;;;2.70;;
26034;SDS011;13809;48.632;11.576;2023-02-01T08:26:50;3.53;;;3.20;;
26034;SDS011;13809;48.632;11.576;2023-02-01T08:31:53;3.40;;;3.10;;
26034;SDS011;13809;48.632;11.576;2023-02-01T08:36:58;4.30;;;3.63;;
26034;SDS011;13809;48.632;11.576;2023-02-01T08:42:01;3.40;;;3.10;;
26034;SDS011;13809;48.632;11.576;2023-02-01T08:47:22;4.37;;;3.47;;
26034;SDS011;13809;48.632;11.576;2023-02-01T08:52:26;3.70;;;3.40;;
26034;SDS011;13809;48.632;11.576;2023-02-01T08:57:29;2.87;;;2.53;;
26034;SDS011;13809;48.632;11.576;2023-02-01T09:02:33;2.70;;;2.50;;
26034;SDS011;13809;48.632;11.576;2023-02-01T09:07:37;4.17;;;3.77;;
26034;SDS011;13809;48.632;11.576;2023-02-01T09:12:40;3.00;;;2.80;;
26034;SDS011;13809;48.632;11.576;2023-02-01T09:17:43;2.80;;;2.60;;
26034;SDS011;13809;48.632;11.576;2023-02-01T09:22:48;3.03;;;2.47;;
26034;SDS011;13809;48.632;11.576;2023-02-01T09:27:51;3.30;;;3.00;;
26034;SDS011;13809;48.632;11.576;2023-02-01T09:32:54;2.83;;;2.60;;
26034;SDS011;13809;48.632;11.576;2023-02-01T09:37:59;2.43;;;2.23;;
26034;SDS011;13809;48.632;11.576;2023-02-01T09:48:31;2.67;;;2.47;;
26034;SDS011;13809;48.632;11.576;2023-02-01T09:53:39;2.50;;;2.30;;
26034;SDS011;13809;48.632;11.576;2023-02-01T09:58:46;2.20;;;2.00;;
26034;SDS011;13809;48.632;11.576;2023-02-01T10:03:55;2.40;;;2.20;;
26034;SDS011;13809;48.632;11.576;2023-02-01T10:09:08;2.20;;;2.00;;
26034;SDS011;13809;48.632;11.576;2023-02-01T10:14:21;2.30;;;2.10;;
26034;SDS011;13809;48.632;11.576;2023-02-01T10:19:39;4.13;;;3.10;;
26034;SDS011;13809;48.632;11.576;2023-02-01T10:24:50;4.13;;;2.50;;
26034;SDS011;13809;48.632;11.576;2023-02-01T10:29:59;3.43;;;3.13;;
26034;SDS011;13809;48.632;11.576;2023-02-01T10:35:08;2.77;;;2.50;;
26034;SDS011;13809;48.632;11.576;2023-02-01T10:40:19;2.83;;;2.63;;
26034;SDS011;13809;48.632;11.576;2023-02-01T10:45:26;2.60;;;2.40;;
26034;SDS011;13809;48.632;11.576;2023-02-01T10:50:33;2.50;;;2.30;;
26034;SDS011;13809;48.632;11.576;2023-02-01T10:55:45;2.97;;;2.67;;
26034;SDS011;13809;48.632;11.576;2023-02-01T11:00:52;3.80;;;2.10;;
26034;SDS011;13809;48.632;11.576;2023-02-01T11:05:58;3.20;;;2.80;;
26034;SDS011;13809;48.632;11.576;2023-02-01T11:11:03;3.47;;;2.90;;
26034;SDS011;13809;48.632;11.576;2023-02-01T11:16:09;3.97;;;2.93;;
26034;SDS011;13809;48.632;11.576;2023-02-01T11:21:16;6.20;;;3.70;;
26034;SDS011;13809;48.632;11.576;2023-02-01T11:26:23;3.40;;;3.03;;
26034;SDS011;13809;48.632;11.576;2023-02-01T11:31:28;3.23;;;2.50;;
26034;SDS011;13809;48.632;11.576;2023-02-01T11:36:32;3.77;;;2.50;;
26034;SDS011;13809;48.632;11.576;2023-02-01T11:41:43;3.07;;;2.30;;
26034;SDS011;13809;48.632;11.576;2023-02-01T11:47:05;3.23;;;2.40;;
26034;SDS011;13809;48.632;11.576;2023-02-01T11:57:54;3.03;;;2.10;;
26034;SDS011;13809;48.632;11.576;2023-02-01T12:03:20;3.67;;;2.40;;
26034;SDS011;13809;48.632;11.576;2023-02-01T12:08:53;4.03;;;2.33;;
26034;SDS011;13809;48.632;11.576;2023-02-01T12:14:11;2.80;;;2.43;;
26034;SDS011;13809;48.632;11.576;2023-02-01T12:19:27;2.50;;;2.30;;
26034;SDS011;13809;48.632;11.576;2023-02-01T12:24:53;4.60;;;2.30;;
26034;SDS011;13809;48.632;11.576;2023-02-01T12:30:13;3.87;;;2.73;;
26034;SDS011;13809;48.632;11.576;2023-02-01T12:35:49;4.13;;;2.73;;
26034;SDS011;13809;48.632;11.576;2023-02-01T12:41:10;4.43;;;2.50;;
26034;SDS011;13809;48.632;11.576;2023-02-01T12:46:28;4.03;;;2.60;;
26034;SDS011;13809;48.632;11.576;2023-02-01T12:51:38;3.50;;;3.20;;
26034;SDS011;13809;48.632;11.576;2023-02-01T12:56:44;3.60;;;2.27;;
26034;SDS011;13809;48.632;11.576;2023-02-01T13:01:54;2.80;;;2.23;;
26034;SDS011;13809;48.632;11.576;2023-02-01T13:07:04;4.57;;;3.33;;
26034;SDS011;13809;48.632;11.576;2023-02-01T13:12:12;3.83;;;3.03;;
26034;SDS011;13809;48.632;11.576;2023-02-01T13:17:23;4.00;;;2.60;;
26034;SDS011;13809;48.632;11.576;2023-02-01T13:22:30;6.30;;;3.23;;
26034;SDS011;13809;48.632;11.576;2023-02-01T13:27:35;6.80;;;3.20;;
26034;SDS011;13809;48.632;11.576;2023-02-01T13:38:57;4.83;;;2.93;;
26034;SDS011;13809;48.632;11.576;2023-02-01T13:44:18;5.00;;;2.67;;
26034;SDS011;13809;48.632;11.576;2023-02-01T13:49:29;3.80;;;2.33;;
26034;SDS011;13809;48.632;11.576;2023-02-01T13:54:36;5.37;;;2.70;;
26034;SDS011;13809;48.632;11.576;2023-02-01T14:05:12;5.13;;;3.10;;
26034;SDS011;13809;48.632;11.576;2023-02-01T14:10:54;5.03;;;3.50;;
26034;SDS011;13809;48.632;11.576;2023-02-01T14:16:12;6.67;;;3.50;;
26034;SDS011;13809;48.632;11.576;2023-02-01T14:21:20;4.07;;;3.00;;
26034;SDS011;13809;48.632;11.576;2023-02-01T14:26:41;8.00;;;3.00;;
26034;SDS011;13809;48.632;11.576;2023-02-01T14:37:10;6.17;;;3.20;;
26034;SDS011;13809;48.632;11.576;2023-02-01T14:42:26;4.77;;;2.83;;
26034;SDS011;13809;48.632;11.576;2023-02-01T14:47:32;4.80;;;2.90;;
26034;SDS011;13809;48.632;11.576;2023-02-01T14:52:38;4.43;;;2.50;;
26034;SDS011;13809;48.632;11.576;2023-02-01T14:57:46;4.43;;;2.60;;
26034;SDS011;13809;48.632;11.576;2023-02-01T15:02:52;5.13;;;2.70;;
26034;SDS011;13809;48.632;11.576;2023-02-01T15:07:59;6.27;;;2.97;;
26034;SDS011;13809;48.632;11.576;2023-02-01T15:13:12;4.23;;;2.50;;
26034;SDS011;13809;48.632;11.576;2023-02-01T15:18:22;5.50;;;2.40;;
26034;SDS011;13809;48.632;11.576;2023-02-01T15:23:27;4.57;;;2.47;;
26034;SDS011;13809;48.632;11.576;2023-02-01T15:28:30;5.50;;;2.53;;
26034;SDS011;13809;48.632;11.576;2023-02-01T15:33:34;4.83;;;2.17;;
26034;SDS011;13809;48.632;11.576;2023-02-01T15:38:39;4.10;;;1.73;;
26034;SDS011;13809;48.632;11.576;2023-02-01T15:43:44;3.70;;;2.10;;
26034;SDS011;13809;48.632;11.576;2023-02-01T15:48:53;4.60;;;2.07;;
26034;SDS011;13809;48.632;11.576;2023-02-01T15:53:59;5.40;;;2.10;;
26034;SDS011;13809;48.632;11.576;2023-02-01T15:59:05;6.47;;;2.40;;
26034;SDS011;13809;48.632;11.576;2023-02-01T16:04:16;4.07;;;1.90;;
26034;SDS011;13809;48.632;11.576;2023-02-01T16:09:22;10.07;;;4.13;;
26034;SDS011;13809;48.632;11.576;2023-02-01T16:14:28;7.03;;;3.10;;
26034;SDS011;13809;48.632;11.576;2023-02-01T16:19:33;4.33;;;2.40;;
26034;SDS011;13809;48.632;11.576;2023-02-01T16:24:37;3.40;;;2.00;;
26034;SDS011;13809;48.632;11.576;2023-02-01T16:29:41;5.93;;;2.50;;
26034;SDS011;13809;48.632;11.576;2023-02-01T16:34:44;4.33;;;2.03;;
26034;SDS011;13809;48.632;11.576;2023-02-01T16:39:49;4.53;;;2.10;;
26034;SDS011;13809;48.632;11.576;2023-02-01T16:44:52;5.30;;;2.13;;
26034;SDS011;13809;48.632;11.576;2023-02-01T16:49:56;6.03;;;2.00;;
26034;SDS011;13809;48.632;11.576;2023-02-01T16:55:00;3.37;;;1.80;;
26034;SDS011;13809;48.632;11.576;2023-02-01T17:00:04;4.13;;;2.03;;
26034;SDS011;13809;48.632;11.576;2023-02-01T17:05:24;4.10;;;1.93;;
26034;SDS011;13809;48.632;11.576;2023-02-01T17:10:29;5.23;;;2.00;;
26034;SDS011;13809;48.632;11.576;2023-02-01T17:15:34;6.53;;;1.80;;
26034;SDS011;13809;48.632;11.576;2023-02-01T17:20:38;5.33;;;2.33;;
26034;SDS011;13809;48.632;11.576;2023-02-01T17:25:43;7.63;;;2.13;;
26034;SDS011;13809;48.632;11.576;2023-02-01T17:30:48;5.77;;;2.30;;
26034;SDS011;13809;48.632;11.576;2023-02-01T17:35:53;5.40;;;2.00;;
26034;SDS011;13809;48.632;11.576;2023-02-01T17:40:58;5.63;;;2.53;;
26034;SDS011;13809;48.632;11.576;2023-02-01T17:46:02;3.13;;;1.93;;
26034;SDS011;13809;48.632;11.576;2023-02-01T17:51:13;5.23;;;2.07;;
26034;SDS011;13809;48.632;11.576;2023-02-01T17:56:20;4.87;;;2.20;;
26034;SDS011;13809;48.632;11.576;2023-02-01T18:01:26;5.27;;;2.70;;
26034;SDS011;13809;48.632;11.576;2023-02-01T18:06:31;5.10;;;2.30;;
26034;SDS011;13809;48.632;11.576;2023-02-01T18:11:40;4.43;;;2.30;;
26034;SDS011;13809;48.632;11.576;2023-02-01T18:16:43;8.43;;;3.00;;
26034;SDS011;13809;48.632;11.576;2023-02-01T18:21:46;6.83;;;3.00;;
26034;SDS011;13809;48.632;11.576;2023-02-01T18:26:51;6.23;;;2.47;;
26034;SDS011;13809;48.632;11.576;2023-02-01T18:31:54;6.30;;;2.50;;
26034;SDS011;13809;48.632;11.576;2023-02-01T18:36:57;5.10;;;2.00;;
26034;SDS011;13809;48.632;11.576;2023-02-01T18:42:02;4.30;;;2.17;;
26034;SDS011;13809;48.632;11.576;2023-02-01T18:47:05;4.47;;;2.23;;
26034;SDS011;13809;48.632;11.576;2023-02-01T18:52:08;5.83;;;2.50;;
26034;SDS011;13809;48.632;11.576;2023-02-01T18:57:15;5.80;;;2.40;;
26034;SDS011;13809;48.632;11.576;2023-02-01T19:02:18;3.50;;;2.00;;
26034;SDS011;13809;48.632;11.576;2023-02-01T19:07:22;5.53;;;2.33;;
26034;SDS011;13809;48.632;11.576;2023-02-01T19:12:27;3.80;;;1.97;;
26034;SDS011;13809;48.632;11.576;2023-02-01T19:17:30;4.63;;;1.90;;
26034;SDS011;13809;48.632;11.576;2023-02-01T19:22:33;5.83;;;2.23;;
26034;SDS011;13809;48.632;11.576;2023-02-01T19:27:38;7.53;;;2.40;;
26034;SDS011;13809;48.632;11.576;2023-02-01T19:32:41;5.13;;;2.03;;
26034;SDS011;13809;48.632;11.576;2023-02-01T19:37:44;4.90;;;2.23;;
26034;SDS011;13809;48.632;11.576;2023-02-01T19:42:49;6.20;;;2.43;;
26034;SDS011;13809;48.632;11.576;2023-02-01T19:47:53;6.43;;;2.30;;
26034;SDS011;13809;48.632;11.576;2023-02-01T19:52:56;5.07;;;2.20;;
26034;SDS011;13809;48.632;11.576;2023-02-01T19:58:00;4.17;;;2.10;;
26034;SDS011;13809;48.632;11.576;2023-02-01T20:03:05;8.53;;;2.30;;
26034;SDS011;13809;48.632;11.576;2023-02-01T20:08:09;4.40;;;2.00;;
26034;SDS011;13809;48.632;11.576;2023-02-01T20:13:13;4.77;;;2.00;;
26034;SDS011;13809;48.632;11.576;2023-02-01T20:18:17;7.07;;;2.00;;
26034;SDS011;13809;48.632;11.576;2023-02-01T20:23:20;4.53;;;2.00;;
26034;SDS011;13809;48.632;11.576;2023-02-01T20:28:24;6.73;;;2.23;;
26034;SDS011;13809;48.632;11.576;2023-02-01T20:33:27;5.33;;;1.97;;
26034;SDS011;13809;48.632;11.576;2023-02-01T20:38:31;6.57;;;2.33;;
26034;SDS011;13809;48.632;11.576;2023-02-01T20:43:36;6.47;;;2.57;;
26034;SDS011;13809;48.632;11.576;2023-02-01T20:48:40;4.67;;;2.30;;
26034;SDS011;13809;48.632;11.576;2023-02-01T20:53:44;3.87;;;2.23;;
26034;SDS011;13809;48.632;11.576;2023-02-01T20:58:50;5.70;;;2.30;;
26034;SDS011;13809;48.632;11.576;2023-02-01T21:03:53;5.07;;;2.30;;
26034;SDS011;13809;48.632;11.576;2023-02-01T21:08:56;5.30;;;2.27;;
26034;SDS011;13809;48.632;11.576;2023-02-01T21:14:01;4.17;;;2.27;;
26034;SDS011;13809;48.632;11.576;2023-02-01T21:19:05;4.67;;;2.40;;
26034;SDS011;13809;48.632;11.576;2023-02-01T21:24:10;5.53;;;2.30;;
26034;SDS011;13809;48.632;11.576;2023-02-01T21:29:14;5.70;;;2.37;;
26034;SDS011;13809;48.632;11.576;2023-02-01T21:34:18;4.80;;;1.87;;
26034;SDS011;13809;48.632;11.576;2023-02-01T21:39:21;4.27;;;1.90;;
26034;SDS011;13809;48.632;11.576;2023-02-01T21:44:25;4.67;;;2.27;;
26034;SDS011;13809;48.632;11.576;2023-02-01T21:49:29;9.30;;;2.23;;
26034;SDS011;13809;48.632;11.576;2023-02-01T21:54:32;7.73;;;1.80;;
26034;SDS011;13809;48.632;11.576;2023-02-01T21:59:37;5.80;;;2.10;;
26034;SDS011;13809;48.632;11.576;2023-02-01T22:04:40;5.43;;;2.20;;
26034;SDS011;13809;48.632;11.576;2023-02-01T22:09:44;6.10;;;2.50;;
26034;SDS011;13809;48.632;11.576;2023-02-01T22:14:49;5.90;;;2.53;;
26034;SDS011;13809;48.632;11.576;2023-02-01T22:19:52;5.97;;;2.17;;
26034;SDS011;13809;48.632;11.576;2023-02-01T22:24:55;5.07;;;1.90;;
26034;SDS011;13809;48.632;11.576;2023-02-01T22:30:00;5.47;;;2.17;;
26034;SDS011;13809;48.632;11.576;2023-02-01T22:35:03;6.33;;;2.47;;
26034;SDS011;13809;48.632;11.576;2023-02-01T22:40:07;4.00;;;1.83;;
26034;SDS011;13809;48.632;11.576;2023-02-01T22:45:13;3.57;;;2.03;;
26034;SDS011;13809;48.632;11.576;2023-02-01T22:50:16;4.10;;;2.13;;
26034;SDS011;13809;48.632;11.576;2023-02-01T22:55:20;5.77;;;2.30;;
26034;SDS011;13809;48.632;11.576;2023-02-01T23:00:25;6.97;;;1.93;;
26034;SDS011;13809;48.632;11.576;2023-02-01T23:05:29;6.57;;;2.60;;
26034;SDS011;13809;48.632;11.576;2023-02-01T23:10:32;5.20;;;2.00;;
26034;SDS011;13809;48.632;11.576;2023-02-01T23:15:38;4.63;;;2.00;;
26034;SDS011;13809;48.632;11.576;2023-02-01T23:20:41;5.63;;;2.00;;
26034;SDS011;13809;48.632;11.576;2023-02-01T23:25:47;7.23;;;2.13;;
26034;SDS011;13809;48.632;11.576;2023-02-01T23:30:53;7.60;;;2.10;;
26034;SDS011;13809;48.632;11.576;2023-02-01T23:35:57;4.97;;;2.00;;
26034;SDS011;13809;48.632;11.576;2023-02-01T23:41:03;4.23;;;2.17;;
26034;SDS011;13809;48.632;11.576;2023-02-01T23:46:09;5.63;;;1.97;;
26034;SDS011;13809;48.632;11.576;2023-02-01T23:51:13;5.40;;;2.00;;
26034;SDS011;13809;48.632;11.576;2023-02-01T23:56:21;4.77;;;2.03;;
